Lynchburg, VA

03:23 EST le 26 janvier 2015 (GMT -0500)
Concord Turnpike | Change Station
CLOSE
Current Station
Stations météorologiques personnelles
Location: Lynchburg, VA
Altitude: 515 ft
Stations météo à proximité

Alt. 515 ft 37.40 °N, 79.11 °W | Updated 0 second ago

Pluie
Pluie
40.1 ° F
Paraît 40 ° F
N
0.6
Vent Variable Vent de NNE
Gusts 2.0 mph

Aujourd'hui
Haut(e) -- | Bas -- ° F
--% Risque de précip.
Hier
Haut(e) -- | Bas -- ° F
Precip. -- pouce
7:24 AM 5:34 PM
Lune montante, 41% visible
Pression 29.73 pouce
Visibilité 10.0 Miles terrestres
Nuages Nuages épars 3000 ft
Couvert 4100 ft
Refroidissement éolien 40 ° F
Point de rosée 37 ° F
Humidité 88%
Précipitations 0.02 pouce
Profondeur de la couche neigeuse Non disponible.
UV 0 sur 12
Pollen 1.40 sur 12
Qualité de l'air Non disponible.
Flu Activity Non disponible.
METAR KLYH 260754Z AUTO 00000KT 10SM -RA SCT030 OVC041 04/02 A2973 RMK AO2 RAB0655 SLP068 P0000 T00390022

More Conditions Fewer Conditions

Pression 29.73 pouce
Visibilité 10.0 Miles terrestres
Nuages Nuages épars 3000 ft
Couvert 4100 ft
Refroidissement éolien 40 ° F
Point de rosée 37 ° F
Humidité 88%
Précipitations 0.02 pouce
Profondeur de la couche neigeuse Non disponible.
UV 0 sur 12
Pollen 1.40 sur 12
Qualité de l'air Non disponible.
Flu Activity Non disponible.
METAR KLYH 260754Z AUTO 00000KT 10SM -RA SCT030 OVC041 04/02 A2973 RMK AO2 RAB0655 SLP068 P0000 T00390022

More Conditions Fewer Conditions

10-Day Weather Forecast

Almanac

Astronomie

Jan. 26, 2015 Lever Coucher
Temps réel
Crépuscule civil
Crépuscule nautique
Crépuscule astronomique
Lune
Durée de lumière visible
Longueur du jour
Tomorrow will be .
, % of the Moon is Illuminated

Extrêmes aujourd'hui

State Highs State Lows

Community

WunderPhotos

Upload Photos

1,790,163 Photos téléchargées !

WunderBlogs® & News

Nearby

Qualité de l'air

  Qualité de l'air Indice de la qualité de l'air Polluant
Not available.

Épaisseur de neige

Station Depth Altitude

Activité sismique

Ville Distance Mag. Time & Date
Minimum magnitude displayed is 2.5.

Températures des eaux côtières

Lieu Température

Stations météo à proximité